createdAt,value
2019-05-12T00:01:39.091Z,11.57
2019-05-12T00:04:12.069Z,10.07
2019-05-12T00:06:47.890Z,8.93
2019-05-12T00:09:18.614Z,9.63
2019-05-12T00:11:48.680Z,11.13
2019-05-12T00:14:19.692Z,11.78
2019-05-12T00:16:49.097Z,10.33
2019-05-12T00:19:28.503Z,7.10
2019-05-12T00:21:58.841Z,8.73
2019-05-12T00:24:31.465Z,7.15
2019-05-12T00:27:01.714Z,8.53
2019-05-12T00:29:33.084Z,10.57
2019-05-12T00:32:01.859Z,10.37
2019-05-12T00:34:31.236Z,8.50
2019-05-12T00:37:00.292Z,13.23
2019-05-12T00:39:31.760Z,10.13
2019-05-12T00:42:02.654Z,7.50
2019-05-12T00:44:31.203Z,10.77
2019-05-12T00:47:05.182Z,9.03
2019-05-12T00:49:33.642Z,7.80
2019-05-12T00:52:04.860Z,8.37
2019-05-12T00:54:33.348Z,14.53
2019-05-12T00:57:04.602Z,8.55
2019-05-12T00:59:35.177Z,8.20
2019-05-12T01:02:03.620Z,8.97
2019-05-12T01:04:33.773Z,9.55
2019-05-12T01:07:02.266Z,10.43
2019-05-12T01:09:38.541Z,9.58
2019-05-12T01:12:11.310Z,13.70
2019-05-12T01:14:39.970Z,7.67
2019-05-12T01:17:12.538Z,11.80
2019-05-12T01:19:42.770Z,9.00
2019-05-12T01:22:11.382Z,10.55
2019-05-12T01:24:39.898Z,9.40
2019-05-12T01:27:08.612Z,10.83
2019-05-12T01:29:38.526Z,13.03
2019-05-12T01:32:13.260Z,11.63
2019-05-12T01:34:44.636Z,11.77
2019-05-12T01:37:28.054Z,12.03
2019-05-12T01:39:59.680Z,9.43
2019-05-12T01:42:31.988Z,10.00
2019-05-12T01:45:00.497Z,11.53
2019-05-12T01:47:32.809Z,7.13
2019-05-12T01:50:01.296Z,13.00
2019-05-12T01:52:31.941Z,9.57
2019-05-12T01:55:03.979Z,14.20
2019-05-12T01:57:32.487Z,11.20
2019-05-12T02:00:01.062Z,10.90
2019-05-12T02:02:29.562Z,10.17
2019-05-12T02:05:02.579Z,13.00
2019-05-12T02:07:35.527Z,16.80
2019-05-12T02:10:09.277Z,12.70
2019-05-12T02:12:39.535Z,12.47
2019-05-12T02:15:11.543Z,13.67
2019-05-12T02:17:40.215Z,14.50
2019-05-12T02:20:12.434Z,12.53
2019-05-12T02:22:41.489Z,13.62
2019-05-12T02:25:10.587Z,10.53
2019-05-12T02:27:42.123Z,12.60
2019-05-12T02:30:13.594Z,12.87
2019-05-12T02:32:52.487Z,12.20
2019-05-12T02:35:24.726Z,15.75
2019-05-12T02:37:55.276Z,13.13
2019-05-12T02:40:25.831Z,14.33
2019-05-12T02:42:56.913Z,15.47
2019-05-12T02:45:26.437Z,17.10
2019-05-12T02:47:57.619Z,13.80
2019-05-12T02:50:37.120Z,14.53
2019-05-12T02:53:10.415Z,13.10
2019-05-12T02:55:39.416Z,15.27
2019-05-12T02:58:09.992Z,14.77
2019-05-12T03:00:46.802Z,14.47
2019-05-12T03:03:18.876Z,13.20
2019-05-12T03:05:51.253Z,17.17
2019-05-12T03:08:25.698Z,15.93
2019-05-12T03:10:56.909Z,15.10
2019-05-12T03:13:27.237Z,15.70
2019-05-12T03:15:55.803Z,14.63
2019-05-12T03:18:25.281Z,12.43
2019-05-12T03:20:54.731Z,14.50
2019-05-12T03:23:25.690Z,12.53
2019-05-12T03:25:58.024Z,14.13
2019-05-12T03:28:27.786Z,16.20
2019-05-12T03:30:58.513Z,12.13
2019-05-12T03:33:35.945Z,14.47
2019-05-12T03:36:09.631Z,15.27
2019-05-12T03:38:37.356Z,16.40
2019-05-12T03:41:05.840Z,14.00
2019-05-12T03:43:37.080Z,16.32
2019-05-12T03:46:06.785Z,18.10
2019-05-12T03:48:38.429Z,15.95
2019-05-12T03:51:15.329Z,12.07
2019-05-12T03:53:45.641Z,12.80
2019-05-12T03:56:15.165Z,17.00
2019-05-12T03:58:45.411Z,13.25
2019-05-12T04:01:16.526Z,15.87
2019-05-12T04:03:45.320Z,15.70
2019-05-12T04:06:24.232Z,12.90
2019-05-12T04:09:00.008Z,12.37
2019-05-12T04:11:31.702Z,14.10
2019-05-12T04:14:00.335Z,10.57
2019-05-12T04:16:31.323Z,11.83
2019-05-12T04:19:05.384Z,14.10
2019-05-12T04:21:34.986Z,12.07
2019-05-12T04:24:06.016Z,18.37
2019-05-12T04:26:36.640Z,13.48
2019-05-12T04:29:09.327Z,11.53
2019-05-12T04:31:44.220Z,14.47
2019-05-12T04:34:18.568Z,11.33
2019-05-12T04:36:45.166Z,11.27
2019-05-12T04:39:16.785Z,12.67
2019-05-12T04:41:47.967Z,12.87
2019-05-12T04:44:25.109Z,13.03
2019-05-12T04:46:58.212Z,13.53
2019-05-12T04:49:27.492Z,14.15
2019-05-12T04:51:57.533Z,17.17
2019-05-12T04:54:28.670Z,9.73
2019-05-12T04:56:57.246Z,9.33
2019-05-12T04:59:27.359Z,11.88
2019-05-12T05:01:57.447Z,11.63
2019-05-12T05:04:26.012Z,13.83
2019-05-12T05:06:57.808Z,9.70
2019-05-12T05:09:26.261Z,10.90
2019-05-12T05:11:56.285Z,13.07
2019-05-12T05:14:29.011Z,12.80
2019-05-12T05:16:57.649Z,11.17
2019-05-12T05:19:26.432Z,12.80
2019-05-12T05:21:55.126Z,15.37
2019-05-12T05:24:29.534Z,12.57
2019-05-12T05:27:00.167Z,11.85
2019-05-12T05:29:28.705Z,10.00
2019-05-12T05:32:03.518Z,15.50
2019-05-12T05:34:34.266Z,11.05
2019-05-12T05:37:05.213Z,11.97
2019-05-12T05:39:43.195Z,15.00
2019-05-12T05:42:05.529Z,9.37
2019-05-12T05:44:37.956Z,13.83
2019-05-12T05:47:06.846Z,15.97
2019-05-12T05:49:36.947Z,10.23
2019-05-12T05:52:06.453Z,10.72
2019-05-12T05:54:35.987Z,11.20
2019-05-12T05:57:14.334Z,10.93
2019-05-12T05:59:46.735Z,14.68
2019-05-12T06:02:15.488Z,14.70
2019-05-12T06:04:49.805Z,12.03
2019-05-12T06:07:23.841Z,10.23
2019-05-12T06:09:50.815Z,11.73
2019-05-12T06:12:19.289Z,12.47
2019-05-12T06:14:55.310Z,8.73
2019-05-12T06:17:29.451Z,8.80
2019-05-12T06:19:59.477Z,8.07
2019-05-12T06:22:31.056Z,8.63
2019-05-12T06:25:01.063Z,6.35
2019-05-12T06:27:33.592Z,8.27
2019-05-12T06:30:05.939Z,6.40
2019-05-12T06:32:36.153Z,9.97
2019-05-12T06:35:06.858Z,7.57
2019-05-12T06:37:40.535Z,6.73
2019-05-12T06:40:09.806Z,9.27
2019-05-12T06:42:39.824Z,8.20
2019-05-12T06:45:18.889Z,7.07
2019-05-12T06:47:54.068Z,6.67
2019-05-12T06:50:28.645Z,4.70
2019-05-12T06:53:05.170Z,5.90
2019-05-12T06:55:39.139Z,6.03
2019-05-12T06:58:08.667Z,6.73
2019-05-12T07:00:37.134Z,5.17
2019-05-12T07:03:14.083Z,6.43
2019-05-12T07:05:47.110Z,6.75
2019-05-12T07:08:26.084Z,3.27
2019-05-12T07:10:51.571Z,5.63
2019-05-12T07:13:24.645Z,3.60
2019-05-12T07:15:51.656Z,4.90
2019-05-12T07:18:24.343Z,3.97
2019-05-12T07:20:53.739Z,3.47
2019-05-12T07:23:26.073Z,3.07
2019-05-12T07:25:55.077Z,2.83
2019-05-12T07:28:24.475Z,7.73
2019-05-12T07:30:55.712Z,2.10
2019-05-12T07:33:32.854Z,3.70
2019-05-12T07:36:01.981Z,3.13
2019-05-12T07:38:34.403Z,3.62
2019-05-12T07:41:08.911Z,2.50
2019-05-12T07:43:38.922Z,4.33
2019-05-12T07:46:09.468Z,3.10
2019-05-12T07:48:40.251Z,3.83
2019-05-12T07:51:13.625Z,5.37
2019-05-12T07:53:49.128Z,1.82
2019-05-12T07:56:14.289Z,3.13
2019-05-12T07:58:47.468Z,2.97
2019-05-12T08:01:19.572Z,3.10
2019-05-12T08:03:50.908Z,3.53
2019-05-12T08:06:20.358Z,2.67
2019-05-12T08:08:58.607Z,1.60
2019-05-12T08:11:28.802Z,5.15
2019-05-12T08:13:56.708Z,2.73
2019-05-12T08:16:30.266Z,4.13
2019-05-12T08:18:59.680Z,2.50
2019-05-12T08:21:34.744Z,4.67
2019-05-12T08:24:03.737Z,1.70
2019-05-12T08:26:33.482Z,1.77
2019-05-12T08:29:04.982Z,2.83
2019-05-12T08:31:40.065Z,3.17
2019-05-12T08:34:04.310Z,3.30
2019-05-12T08:36:34.290Z,1.60
2019-05-12T08:39:06.010Z,1.63
2019-05-12T08:41:39.282Z,2.40
2019-05-12T08:44:07.901Z,3.13
2019-05-12T08:46:43.127Z,2.30
2019-05-12T08:49:10.148Z,5.33
2019-05-12T08:51:44.110Z,3.87
2019-05-12T08:54:17.976Z,5.17
2019-05-12T08:56:51.119Z,2.33
2019-05-12T08:59:24.206Z,3.73
2019-05-12T09:01:48.672Z,2.50
2019-05-12T09:04:20.200Z,3.40
2019-05-12T09:06:56.392Z,2.50
2019-05-12T09:09:23.230Z,2.60
2019-05-12T09:11:54.238Z,4.13
2019-05-12T09:14:24.559Z,3.20
2019-05-12T09:17:02.012Z,3.60
2019-05-12T09:19:26.664Z,1.70
2019-05-12T09:21:58.335Z,3.07
2019-05-12T09:24:27.539Z,2.67
2019-05-12T09:27:04.321Z,3.53
2019-05-12T09:29:30.500Z,2.23
2019-05-12T09:32:04.165Z,4.00
2019-05-12T09:34:33.603Z,2.47
2019-05-12T09:37:04.028Z,3.20
2019-05-12T09:39:34.098Z,3.03
2019-05-12T09:42:03.963Z,2.93
2019-05-12T09:44:34.332Z,1.50
2019-05-12T09:47:07.624Z,1.37
2019-05-12T09:49:39.536Z,3.07
2019-05-12T09:52:07.403Z,2.97
2019-05-12T09:54:45.455Z,3.73
2019-05-12T09:57:20.817Z,3.15
2019-05-12T09:59:55.470Z,2.17
2019-05-12T10:02:26.587Z,1.80
2019-05-12T10:04:56.380Z,1.47
2019-05-12T10:07:27.421Z,2.90
2019-05-12T10:09:58.974Z,2.13
2019-05-12T10:12:29.725Z,1.90
2019-05-12T10:15:00.370Z,1.73
2019-05-12T10:17:30.360Z,2.27
2019-05-12T10:20:00.869Z,4.25
2019-05-12T10:22:40.257Z,1.27
2019-05-12T10:25:10.269Z,1.10
2019-05-12T10:27:39.184Z,2.10
2019-05-12T10:30:12.217Z,2.43
2019-05-12T10:32:40.730Z,2.13
2019-05-12T10:35:12.266Z,1.70
2019-05-12T10:37:40.321Z,3.83
2019-05-12T10:40:10.458Z,1.95
2019-05-12T10:42:47.782Z,1.50
2019-05-12T10:45:16.952Z,1.67
2019-05-12T10:47:44.526Z,1.57
2019-05-12T10:50:14.539Z,2.37
2019-05-12T10:52:44.102Z,1.50
2019-05-12T10:55:16.361Z,2.13
2019-05-12T10:57:47.231Z,1.70
2019-05-12T11:00:19.784Z,3.00
2019-05-12T11:02:48.474Z,1.53
2019-05-12T11:05:23.783Z,2.93
2019-05-12T11:07:54.902Z,2.80
2019-05-12T11:10:27.536Z,3.50
2019-05-12T11:12:59.141Z,2.03
2019-05-12T11:15:27.564Z,4.33
2019-05-12T11:17:59.485Z,1.97
2019-05-12T11:20:27.958Z,2.20
2019-05-12T11:22:58.096Z,3.00
2019-05-12T11:25:26.665Z,2.00
2019-05-12T11:27:55.135Z,2.73
2019-05-12T11:30:23.882Z,3.50
2019-05-12T11:32:54.322Z,2.05
2019-05-12T11:35:24.200Z,1.97
2019-05-12T11:37:55.578Z,2.50
2019-05-12T11:40:25.060Z,1.50
2019-05-12T11:43:00.924Z,2.03
2019-05-12T11:45:28.102Z,1.13
2019-05-12T11:48:05.130Z,2.03
2019-05-12T11:50:29.328Z,1.40
2019-05-12T11:53:00.456Z,1.25
2019-05-12T11:55:31.905Z,2.07
2019-05-12T11:58:11.380Z,2.70
2019-05-12T12:00:47.716Z,5.53
2019-05-12T12:03:18.338Z,2.23
2019-05-12T12:05:53.596Z,1.53
2019-05-12T12:08:36.020Z,2.13
2019-05-12T12:10:58.693Z,1.87
2019-05-12T12:13:33.564Z,1.97
2019-05-12T12:16:11.248Z,1.10
2019-05-12T12:18:38.578Z,1.13
2019-05-12T12:21:10.060Z,0.80
2019-05-12T12:23:40.997Z,5.07
2019-05-12T12:26:13.144Z,0.80
2019-05-12T12:28:43.543Z,0.80
2019-05-12T12:31:15.229Z,1.50
2019-05-12T12:33:48.484Z,1.83
2019-05-12T12:36:23.670Z,2.60
2019-05-12T12:38:53.518Z,2.20
2019-05-12T12:41:23.872Z,0.73
2019-05-12T12:43:54.870Z,1.67
2019-05-12T12:46:26.383Z,4.10
2019-05-12T12:49:00.177Z,1.63
2019-05-12T12:51:29.509Z,2.23
2019-05-12T12:53:58.232Z,2.53
2019-05-12T12:56:34.070Z,4.13
2019-05-12T12:59:10.177Z,0.70
2019-05-12T13:01:35.629Z,2.10
2019-05-12T13:06:55.295Z,1.37
2019-05-12T13:09:27.375Z,2.52
2019-05-12T13:12:13.848Z,2.97
2019-05-12T13:14:28.657Z,1.57
2019-05-12T13:17:04.216Z,2.23
2019-05-12T13:19:33.313Z,1.00
2019-05-12T13:22:03.716Z,2.05
2019-05-12T13:24:37.088Z,1.03
2019-05-12T13:27:05.552Z,2.40
2019-05-12T13:29:38.626Z,0.80
2019-05-12T13:32:04.336Z,1.47
2019-05-12T13:34:38.407Z,2.50
2019-05-12T13:37:09.473Z,1.70
2019-05-12T13:39:39.494Z,1.57
2019-05-12T13:42:10.256Z,2.27
2019-05-12T13:44:40.553Z,2.17
2019-05-12T13:47:08.503Z,1.10
2019-05-12T13:49:45.353Z,1.80
2019-05-12T13:52:13.336Z,2.20
2019-05-12T13:54:43.698Z,1.63
2019-05-12T13:57:17.603Z,2.57
2019-05-12T13:59:53.726Z,1.60
2019-05-12T14:02:22.238Z,1.57
2019-05-12T14:04:49.818Z,1.43
2019-05-12T14:07:23.532Z,1.17
2019-05-12T14:09:51.343Z,1.87
2019-05-12T14:12:19.975Z,2.33
2019-05-12T14:14:48.563Z,1.60
2019-05-12T14:17:17.179Z,1.23
2019-05-12T14:19:49.932Z,3.10
2019-05-12T14:22:26.439Z,1.40
2019-05-12T14:24:54.123Z,1.63
2019-05-12T14:27:25.600Z,1.27
2019-05-12T14:30:00.258Z,1.57
2019-05-12T14:32:33.670Z,3.10
2019-05-12T14:35:04.378Z,4.57
2019-05-12T14:37:34.281Z,1.47
2019-05-12T14:40:04.504Z,1.53
2019-05-12T14:42:39.523Z,1.97
2019-05-12T14:45:06.372Z,2.13
2019-05-12T14:47:34.849Z,1.37
2019-05-12T14:50:05.524Z,1.00
2019-05-12T14:52:37.003Z,1.80
2019-05-12T14:55:07.636Z,1.33
2019-05-12T14:57:40.312Z,1.53
2019-05-12T15:00:11.257Z,3.53
2019-05-12T15:02:40.076Z,3.13
2019-05-12T15:05:10.991Z,1.37
2019-05-12T15:07:51.162Z,2.95
2019-05-12T15:10:14.562Z,1.20
2019-05-12T15:12:48.266Z,2.87
2019-05-12T15:15:20.430Z,2.03
2019-05-12T15:17:47.264Z,2.10
2019-05-12T15:20:20.646Z,2.10
2019-05-12T15:22:51.647Z,1.70
2019-05-12T15:25:21.943Z,2.10
2019-05-12T15:27:50.434Z,3.08
2019-05-12T15:30:24.430Z,2.97
2019-05-12T15:32:53.578Z,2.13
2019-05-12T15:35:23.959Z,4.77
2019-05-12T15:37:55.139Z,2.73
2019-05-12T15:40:26.580Z,2.17
2019-05-12T15:43:00.547Z,3.33
2019-05-12T15:45:28.058Z,5.67
2019-05-12T15:47:56.534Z,3.58
2019-05-12T15:50:26.186Z,5.23
2019-05-12T15:52:56.460Z,1.37
2019-05-12T15:55:33.016Z,2.50
2019-05-12T15:57:58.195Z,1.87
2019-05-12T16:00:28.464Z,3.53
2019-05-12T16:03:04.207Z,7.23
2019-05-12T16:05:37.188Z,1.27
2019-05-12T16:08:07.182Z,2.93
2019-05-12T16:10:35.650Z,2.27
2019-05-12T16:13:08.101Z,1.63
2019-05-12T16:15:36.643Z,2.60
2019-05-12T16:18:10.270Z,1.40
2019-05-12T16:20:47.931Z,1.73
2019-05-12T16:23:24.950Z,1.00
2019-05-12T16:25:51.070Z,2.10
2019-05-12T16:28:23.558Z,1.60
2019-05-12T16:30:49.875Z,1.07
2019-05-12T16:33:20.791Z,2.37
2019-05-12T16:35:51.181Z,2.43
2019-05-12T16:38:20.159Z,1.80
2019-05-12T16:40:53.912Z,2.67
2019-05-12T16:43:34.982Z,2.20
2019-05-12T16:46:00.080Z,1.30
2019-05-12T16:48:32.766Z,1.27
2019-05-12T16:51:00.261Z,1.80
2019-05-12T16:53:30.506Z,2.47
2019-05-12T16:55:59.234Z,1.77
2019-05-12T16:58:33.136Z,1.37
2019-05-12T17:01:00.869Z,1.67
2019-05-12T17:03:34.032Z,2.12
2019-05-12T17:06:03.577Z,3.40
2019-05-12T17:08:34.446Z,1.72
2019-05-12T17:11:21.532Z,3.10
2019-05-12T17:13:34.057Z,2.80
2019-05-12T17:16:04.232Z,3.83
2019-05-12T17:18:33.902Z,2.37
2019-05-12T17:21:04.217Z,4.73
2019-05-12T17:23:33.376Z,3.83
2019-05-12T17:26:13.927Z,2.45
2019-05-12T17:28:43.565Z,1.27
2019-05-12T17:31:15.937Z,2.03
2019-05-12T17:33:48.873Z,5.43
2019-05-12T17:36:24.061Z,1.63
2019-05-12T17:38:56.092Z,1.70
2019-05-12T17:41:23.684Z,2.73
2019-05-12T17:44:00.883Z,2.07
2019-05-12T17:46:26.229Z,4.70
2019-05-12T17:48:54.825Z,1.50
2019-05-12T17:51:28.857Z,2.37
2019-05-12T17:53:55.330Z,2.83
2019-05-12T17:56:34.074Z,4.95
2019-05-12T17:58:58.333Z,2.23
2019-05-12T18:01:31.162Z,2.33
2019-05-12T18:03:59.992Z,3.13
2019-05-12T18:06:30.859Z,7.33
2019-05-12T18:09:00.497Z,4.27
2019-05-12T18:11:28.979Z,3.17
2019-05-12T18:14:07.575Z,3.97
2019-05-12T18:16:36.173Z,3.20
2019-05-12T18:19:08.866Z,2.67
2019-05-12T18:21:37.476Z,3.27
2019-05-12T18:24:11.787Z,2.10
2019-05-12T18:26:41.143Z,4.63
2019-05-12T18:29:14.667Z,1.95
2019-05-12T18:31:43.209Z,5.53
2019-05-12T18:34:11.121Z,4.85
2019-05-12T18:36:39.688Z,2.37
2019-05-12T18:39:11.517Z,4.67
2019-05-12T18:41:38.911Z,2.87
2019-05-12T18:44:07.608Z,1.50
2019-05-12T18:46:45.158Z,6.63
2019-05-12T18:49:12.432Z,1.57
2019-05-12T18:51:43.506Z,2.40
2019-05-12T18:54:15.040Z,2.93
2019-05-12T18:56:44.053Z,3.47
2019-05-12T18:59:16.446Z,3.40
2019-05-12T19:01:45.894Z,4.63
2019-05-12T19:04:14.546Z,3.05
2019-05-12T19:06:46.487Z,3.63
2019-05-12T19:09:17.976Z,4.27
2019-05-12T19:11:47.260Z,2.47
2019-05-12T19:14:18.323Z,2.60
2019-05-12T19:16:48.334Z,5.57
2019-05-12T19:19:20.118Z,5.10
2019-05-12T19:22:00.691Z,4.63
2019-05-12T19:24:22.023Z,3.60
2019-05-12T19:26:54.566Z,3.50
2019-05-12T19:29:24.351Z,3.10
2019-05-12T19:31:58.056Z,2.63
2019-05-12T19:34:26.469Z,5.40
2019-05-12T19:36:56.727Z,2.47
2019-05-12T19:39:28.453Z,3.20
2019-05-12T19:41:56.945Z,3.83
2019-05-12T19:44:30.575Z,4.30
2019-05-12T19:46:57.999Z,3.20
2019-05-12T19:49:28.413Z,2.63
2019-05-12T19:52:00.262Z,3.33
2019-05-12T19:54:36.297Z,3.37
2019-05-12T19:57:02.941Z,7.20
2019-05-12T19:59:36.241Z,2.63
2019-05-12T20:02:04.887Z,5.93
2019-05-12T20:04:42.079Z,2.20
2019-05-12T20:07:07.729Z,3.87
2019-05-12T20:09:36.253Z,3.10
2019-05-12T20:12:13.181Z,1.57
2019-05-12T20:14:37.736Z,3.93
2019-05-12T20:17:09.081Z,2.20
2019-05-12T20:19:39.162Z,4.92
2019-05-12T20:22:09.221Z,3.50
2019-05-12T20:24:37.903Z,3.83
2019-05-12T20:27:15.581Z,2.33
2019-05-12T20:29:39.118Z,6.10
2019-05-12T20:32:07.748Z,2.80
2019-05-12T20:34:49.176Z,2.70
2019-05-12T20:37:14.302Z,4.93
2019-05-12T20:39:40.806Z,3.07
2019-05-12T20:42:10.340Z,5.83
2019-05-12T20:44:38.879Z,3.27
2019-05-12T20:47:07.385Z,5.10
2019-05-12T20:49:42.893Z,3.37
2019-05-12T20:52:14.444Z,4.00
2019-05-12T20:54:49.178Z,2.87
2019-05-12T20:57:16.851Z,5.63
2019-05-12T20:59:48.273Z,4.20
2019-05-12T21:02:19.910Z,4.50
2019-05-12T21:05:00.122Z,2.47
2019-05-12T21:07:22.258Z,2.58
2019-05-12T21:09:54.182Z,4.60
2019-05-12T21:12:24.178Z,2.63
2019-05-12T21:15:11.259Z,5.33
2019-05-12T21:17:38.962Z,2.50
2019-05-12T21:20:11.629Z,4.40
2019-05-12T21:22:43.573Z,2.37
2019-05-12T21:25:14.928Z,2.57
2019-05-12T21:27:47.335Z,2.37
2019-05-12T21:30:18.303Z,3.97
2019-05-12T21:32:56.510Z,3.60
2019-05-12T21:35:22.705Z,2.63
2019-05-12T21:37:50.171Z,2.00
2019-05-12T21:40:22.322Z,4.30
2019-05-12T21:42:50.229Z,4.23
2019-05-12T21:45:25.475Z,3.95
2019-05-12T21:47:50.490Z,3.40
2019-05-12T21:50:24.336Z,4.42
2019-05-12T21:52:56.993Z,3.50
2019-05-12T21:55:26.338Z,5.67
2019-05-12T21:58:01.607Z,5.57
2019-05-12T22:00:38.822Z,4.27
2019-05-12T22:03:13.018Z,3.13
2019-05-12T22:05:51.961Z,5.37
2019-05-12T22:08:20.793Z,5.87
2019-05-12T22:10:43.851Z,3.77
2019-05-12T22:13:17.611Z,4.17
2019-05-12T22:15:42.816Z,3.63
2019-05-12T22:18:12.866Z,4.33
2019-05-12T22:20:46.356Z,3.23
2019-05-12T22:23:17.584Z,5.97
2019-05-12T22:25:49.003Z,5.30
2019-05-12T22:28:18.236Z,4.27
2019-05-12T22:33:49.856Z,2.33
2019-05-12T22:36:24.866Z,3.13
2019-05-12T22:39:00.628Z,5.50
2019-05-12T22:41:24.209Z,3.30
2019-05-12T22:43:54.472Z,3.50
2019-05-12T22:46:31.201Z,4.75
2019-05-12T22:49:04.716Z,4.30
2019-05-12T22:51:37.745Z,7.78
2019-05-12T22:54:10.450Z,3.60
2019-05-12T22:56:37.930Z,6.75
2019-05-12T22:59:06.388Z,5.23
2019-05-12T23:01:41.695Z,3.80
2019-05-12T23:04:08.276Z,7.15
2019-05-12T23:06:42.067Z,5.13
2019-05-12T23:09:07.334Z,3.27
2019-05-12T23:11:37.809Z,9.97
2019-05-12T23:14:12.401Z,7.17
2019-05-12T23:16:37.632Z,5.77
2019-05-12T23:19:11.879Z,4.80
2019-05-12T23:21:43.848Z,7.47
2019-05-12T23:24:16.122Z,5.63
2019-05-12T23:26:47.828Z,5.63
2019-05-12T23:29:20.313Z,3.80
2019-05-12T23:31:45.395Z,8.10
2019-05-12T23:34:16.038Z,7.03
2019-05-12T23:36:44.510Z,6.10
2019-05-12T23:39:14.377Z,8.83
2019-05-12T23:41:44.420Z,7.57
2019-05-12T23:44:15.951Z,4.50
2019-05-12T23:46:45.944Z,9.00
2019-05-12T23:49:14.511Z,6.23
2019-05-12T23:51:43.946Z,7.37
2019-05-12T23:54:14.519Z,6.63
2019-05-12T23:56:44.640Z,8.80
2019-05-12T23:59:13.570Z,6.47
